Time;durP1;ratioP1;P1;durP2;ratioP2;P2;SDS_P1;SDS_P2;PMS_P1;PMS_P2;Temp;Humidity;BMP_temperature;BMP_pressure;BME280_temperature;BME280_humidity;BME280_pressure;Samples;Min_cycle;Max_cycle;Signal;HPM_P1;HPM_P2
2023/10/09 00:01:27;;;;;;;;;;;14.40;99.90;;;;;;5137338;27;19907;-45
2023/10/09 00:03:54;;;;;;;;;;;14.30;99.90;;;;;;5137133;27;19914;-46
2023/10/09 00:06:37;;;;;;;;;;;14.30;99.90;;;;;;5137092;27;19959;-43
2023/10/09 00:11:56;;;;;;;;;;;14.40;99.90;;;;;;5137040;27;19966;-43
2023/10/09 00:14:22;;;;;;;;;;;14.40;99.90;;;;;;5137091;27;19935;-45
2023/10/09 00:16:56;;;;;;;;;;;14.40;99.90;;;;;;5136843;27;20661;-47
2023/10/09 00:19:30;;;;;;;;;;;14.40;99.90;;;;;;5137100;27;19951;-43
2023/10/09 00:21:55;;;;;;;;;;;14.40;99.90;;;;;;5136833;27;20340;-44
2023/10/09 00:24:24;;;;;;;;;;;14.30;99.90;;;;;;5136892;27;20007;-45
2023/10/09 00:26:56;;;;;;;;;;;14.30;99.90;;;;;;5136733;27;19907;-43
2023/10/09 00:29:22;;;;;;;;;;;14.30;99.90;;;;;;5136632;27;19912;-45
2023/10/09 00:32:13;;;;;;;;;;;14.30;99.90;;;;;;5136626;27;20282;-44
2023/10/09 00:34:41;;;;;;;;;;;14.40;99.90;;;;;;5136585;27;19914;-45
2023/10/09 00:37:16;;;;;;;;;;;14.40;99.90;;;;;;5136262;27;19919;-44
2023/10/09 00:39:43;;;;;;;;;;;14.40;99.90;;;;;;5136324;27;20430;-44
2023/10/09 00:42:12;;;;;;;;;;;14.40;99.90;;;;;;5136427;27;19907;-45
2023/10/09 00:44:41;;;;;;;;;;;14.30;99.90;;;;;;5136360;27;19912;-44
2023/10/09 00:47:22;;;;;;;;;;;14.30;99.90;;;;;;5136469;27;19908;-47
2023/10/09 00:50:25;;;;;;;;;;;14.40;99.90;;;;;;5136276;27;19912;-45
2023/10/09 00:53:01;;;;;;;;;;;14.30;99.90;;;;;;5135386;27;20002;-46
2023/10/09 00:55:45;;;;;;;;;;;14.30;99.90;;;;;;5136357;27;19939;-47
2023/10/09 00:58:14;;;;;;;;;;;14.30;99.90;;;;;;5136087;27;19957;-44
2023/10/09 01:03:19;;;;;;;;;;;14.30;99.90;;;;;;5136072;27;19937;-43
2023/10/09 01:11:09;;;;;;;;;;;14.30;99.90;;;;;;5136128;27;19912;-43
2023/10/09 01:13:53;;;;;;;;;;;14.30;99.90;;;;;;5135855;27;19984;-45
2023/10/09 01:16:21;;;;;;;;;;;14.20;99.90;;;;;;5135953;27;19911;-43
2023/10/09 01:18:49;;;;;;;;;;;14.20;99.90;;;;;;5135734;27;19951;-47
2023/10/09 01:21:15;;;;;;;;;;;14.20;99.90;;;;;;5135665;27;19908;-43
2023/10/09 01:23:58;;;;;;;;;;;14.30;99.90;;;;;;5135637;27;19914;-44
2023/10/09 01:26:24;;;;;;;;;;;14.20;99.90;;;;;;5135800;27;19942;-46
2023/10/09 01:28:50;;;;;;;;;;;14.20;99.90;;;;;;5135478;27;19908;-43
2023/10/09 01:31:15;;;;;;;;;;;14.20;99.90;;;;;;5135562;27;19912;-46
2023/10/09 01:33:41;;;;;;;;;;;14.20;99.90;;;;;;5135358;27;20011;-45
2023/10/09 01:36:09;;;;;;;;;;;14.20;99.90;;;;;;5135346;27;19926;-43
2023/10/09 01:38:41;;;;;;;;;;;14.20;99.90;;;;;;5135436;27;20414;-44
2023/10/09 01:41:15;;;;;;;;;;;14.10;99.90;;;;;;5134991;27;19915;-43
2023/10/09 01:43:44;;;;;;;;;;;14.20;99.90;;;;;;5135218;27;19915;-48
2023/10/09 01:46:11;;;;;;;;;;;14.20;99.90;;;;;;5135164;27;19914;-45
2023/10/09 01:48:43;;;;;;;;;;;14.20;99.90;;;;;;5135156;27;19908;-44
2023/10/09 01:51:13;;;;;;;;;;;14.20;99.90;;;;;;5135399;27;19933;-45
2023/10/09 01:53:38;;;;;;;;;;;14.10;99.90;;;;;;5135023;27;19908;-44
2023/10/09 01:56:14;;;;;;;;;;;14.10;99.90;;;;;;5135161;27;19914;-43
2023/10/09 01:58:40;;;;;;;;;;;14.10;99.90;;;;;;5134804;27;19915;-44
2023/10/09 02:01:06;;;;;;;;;;;14.10;99.90;;;;;;5135049;27;19914;-44
2023/10/09 02:03:36;;;;;;;;;;;14.10;99.90;;;;;;5134977;27;19907;-44
2023/10/09 02:06:04;;;;;;;;;;;14.10;99.90;;;;;;5134789;27;19915;-43
2023/10/09 02:08:30;;;;;;;;;;;14.10;99.90;;;;;;5134845;27;19952;-44
2023/10/09 02:10:56;;;;;;;;;;;14.10;99.90;;;;;;5134606;27;19915;-44
2023/10/09 02:13:29;;;;;;;;;;;14.10;99.90;;;;;;5134679;27;19911;-44
2023/10/09 02:16:14;;;;;;;;;;;14.10;99.90;;;;;;5134610;27;20005;-47
2023/10/09 02:18:41;;;;;;;;;;;14.10;99.90;;;;;;5134751;27;20380;-45
2023/10/09 02:26:40;;;;;;;;;;;14.10;99.90;;;;;;5134529;27;19947;-45
2023/10/09 02:29:18;;;;;;;;;;;14.10;99.90;;;;;;5134679;27;19908;-45
2023/10/09 02:31:47;;;;;;;;;;;14.10;99.90;;;;;;5134404;27;19960;-45
2023/10/09 02:34:15;;;;;;;;;;;14.10;99.90;;;;;;5134271;27;19908;-46
2023/10/09 02:36:49;;;;;;;;;;;14.10;99.90;;;;;;5133878;27;20282;-44
2023/10/09 02:39:28;;;;;;;;;;;14.20;99.90;;;;;;5134301;27;19942;-47
2023/10/09 02:42:00;;;;;;;;;;;14.20;99.90;;;;;;5134217;27;19968;-44
2023/10/09 02:44:27;;;;;;;;;;;14.20;99.90;;;;;;5134090;27;20364;-47
2023/10/09 02:46:57;;;;;;;;;;;14.20;99.90;;;;;;5134009;27;19951;-44
2023/10/09 02:49:23;;;;;;;;;;;14.20;99.90;;;;;;5134163;27;19907;-46
2023/10/09 02:51:53;;;;;;;;;;;14.20;99.90;;;;;;5133896;27;20346;-43
2023/10/09 02:54:18;;;;;;;;;;;14.20;99.90;;;;;;5133158;27;20002;-45
2023/10/09 02:56:47;;;;;;;;;;;14.30;99.90;;;;;;5133918;27;20333;-43
2023/10/09 02:59:13;;;;;;;;;;;14.30;99.90;;;;;;5134014;27;19916;-47
2023/10/09 03:01:39;;;;;;;;;;;14.20;99.90;;;;;;5133824;27;19907;-49
2023/10/09 03:04:10;;;;;;;;;;;14.30;99.90;;;;;;5133900;27;19908;-45
2023/10/09 03:06:43;;;;;;;;;;;14.30;99.90;;;;;;5133852;27;19907;-44
2023/10/09 03:09:17;;;;;;;;;;;14.30;99.90;;;;;;5133874;27;20384;-46
2023/10/09 03:11:48;;;;;;;;;;;14.30;99.90;;;;;;5133718;27;20386;-44
2023/10/09 03:14:14;;;;;;;;;;;14.30;99.90;;;;;;5133834;28;19916;-47
2023/10/09 03:16:39;;;;;;;;;;;14.30;99.90;;;;;;5133636;28;19908;-46
2023/10/09 03:19:04;;;;;;;;;;;14.30;99.90;;;;;;5133663;28;19922;-47
2023/10/09 03:21:30;;;;;;;;;;;14.30;99.90;;;;;;5133667;28;20273;-45
2023/10/09 03:23:56;;;;;;;;;;;14.30;99.90;;;;;;5133602;28;19911;-46
2023/10/09 03:26:25;;;;;;;;;;;14.30;99.90;;;;;;5133742;28;19907;-45
2023/10/09 03:28:52;;;;;;;;;;;14.30;99.90;;;;;;5133620;28;19912;-44
2023/10/09 03:31:18;;;;;;;;;;;14.30;99.90;;;;;;5133660;28;19998;-45
2023/10/09 03:33:43;;;;;;;;;;;14.30;99.90;;;;;;5133610;28;19946;-45
2023/10/09 03:36:09;;;;;;;;;;;14.30;99.90;;;;;;5133388;28;19919;-47
2023/10/09 03:38:40;;;;;;;;;;;14.40;99.90;;;;;;5133437;28;19912;-43
2023/10/09 03:41:06;;;;;;;;;;;14.40;99.90;;;;;;5133563;28;19999;-45
2023/10/09 03:43:39;;;;;;;;;;;14.40;99.90;;;;;;5133692;28;19953;-46
2023/10/09 03:46:05;;;;;;;;;;;14.50;99.90;;;;;;5133493;28;19907;-46
2023/10/09 03:48:36;;;;;;;;;;;14.50;99.90;;;;;;5133434;28;19998;-43
2023/10/09 03:51:08;;;;;;;;;;;14.50;99.90;;;;;;5133434;28;19908;-45
2023/10/09 03:53:39;;;;;;;;;;;14.50;99.90;;;;;;5133474;28;19994;-45
2023/10/09 03:56:15;;;;;;;;;;;14.60;99.90;;;;;;5133340;28;19911;-43
2023/10/09 03:58:44;;;;;;;;;;;14.60;99.90;;;;;;5133290;28;20417;-46
2023/10/09 04:01:22;;;;;;;;;;;14.70;99.90;;;;;;5133434;28;19907;-44
2023/10/09 04:03:49;;;;;;;;;;;14.70;99.90;;;;;;5133406;27;20297;-44
2023/10/09 04:06:17;;;;;;;;;;;14.80;99.90;;;;;;5137263;27;19907;-45
2023/10/09 04:08:51;;;;;;;;;;;14.80;99.90;;;;;;5137076;27;19936;-45
2023/10/09 04:11:16;;;;;;;;;;;14.90;99.90;;;;;;5137059;27;19907;-45
2023/10/09 04:13:45;;;;;;;;;;;14.90;99.90;;;;;;5137009;27;19915;-47
2023/10/09 04:16:28;;;;;;;;;;;14.90;99.90;;;;;;5136889;27;19907;-46
2023/10/09 04:18:56;;;;;;;;;;;15.00;99.90;;;;;;5136792;27;20373;-45
2023/10/09 04:21:37;;;;;;;;;;;15.00;99.90;;;;;;5136990;27;19969;-46
2023/10/09 04:26:44;;;;;;;;;;;15.10;99.90;;;;;;5136791;27;19907;-44
2023/10/09 04:29:10;;;;;;;;;;;15.10;99.90;;;;;;5136760;27;19908;-45
2023/10/09 04:31:37;;;;;;;;;;;15.20;99.90;;;;;;5136696;27;19908;-44
2023/10/09 04:34:22;;;;;;;;;;;15.20;99.90;;;;;;5136697;27;20419;-46
2023/10/09 04:36:49;;;;;;;;;;;15.30;99.90;;;;;;5136321;27;19973;-45
2023/10/09 04:39:16;;;;;;;;;;;15.30;99.90;;;;;;5136456;27;19915;-45
2023/10/09 04:44:28;;;;;;;;;;;15.40;99.90;;;;;;5136640;27;19911;-45
2023/10/09 04:52:51;;;;;;;;;;;15.50;99.90;;;;;;5136439;27;19914;-49
2023/10/09 05:02:57;;;;;;;;;;;15.60;99.90;;;;;;5136200;27;20119;-44
2023/10/09 05:08:45;;;;;;;;;;;15.60;99.90;;;;;;5136057;27;19932;-44
2023/10/09 05:16:18;;;;;;;;;;;15.60;99.90;;;;;;5135015;27;19915;-42
2023/10/09 05:18:56;;;;;;;;;;;15.60;99.90;;;;;;5135716;27;19959;-43
2023/10/09 05:29:24;;;;;;;;;;;15.60;99.90;;;;;;5135650;27;19907;-44
2023/10/09 05:31:56;;;;;;;;;;;15.60;99.90;;;;;;5135583;27;19907;-44
2023/10/09 05:34:22;;;;;;;;;;;15.60;99.90;;;;;;5135622;27;19915;-47
2023/10/09 05:36:48;;;;;;;;;;;15.60;99.90;;;;;;5135182;27;19972;-44
2023/10/09 05:39:40;;;;;;;;;;;15.60;99.90;;;;;;5135346;27;20010;-45
2023/10/09 05:42:12;;;;;;;;;;;15.60;99.90;;;;;;5135488;27;19908;-44
2023/10/09 05:46:07;;;;;;;;;;;15.60;99.90;;;;;;5135354;27;19908;-47
2023/10/09 05:47:29;;;;;;;;;;;15.70;99.90;;;;;;5120620;27;19908;-47
2023/10/09 05:49:54;;;;;;;;;;;15.70;99.90;;;;;;5135110;27;19907;-46
2023/10/09 05:52:32;;;;;;;;;;;15.70;99.90;;;;;;5135476;27;19911;-46
2023/10/09 06:11:35;;;;;;;;;;;15.90;99.90;;;;;;5134848;27;19908;-43
2023/10/09 06:14:03;;;;;;;;;;;15.90;99.90;;;;;;5134501;27;19907;-44
2023/10/09 06:16:41;;;;;;;;;;;15.90;99.90;;;;;;5134716;27;19955;-46
2023/10/09 06:24:23;;;;;;;;;;;16.10;99.90;;;;;;5134574;27;19914;-44
2023/10/09 06:29:35;;;;;;;;;;;16.20;99.90;;;;;;5134391;27;19915;-43
2023/10/09 06:34:52;;;;;;;;;;;16.20;99.90;;;;;;5134389;27;19907;-44
2023/10/09 06:42:34;;;;;;;;;;;16.30;99.90;;;;;;5134313;27;19922;-45
2023/10/09 06:45:00;;;;;;;;;;;16.40;99.90;;;;;;5134195;27;19918;-46
2023/10/09 06:47:25;;;;;;;;;;;16.40;99.90;;;;;;5134403;27;19914;-44
2023/10/09 06:55:48;;;;;;;;;;;16.40;99.90;;;;;;5128812;27;20290;-45
2023/10/09 06:58:25;;;;;;;;;;;16.50;99.90;;;;;;5134077;27;19916;-43
2023/10/09 07:03:36;;;;;;;;;;;16.50;99.90;;;;;;5134289;27;20311;-44
2023/10/09 07:17:00;;;;;;;;;;;16.60;99.90;;;;;;5133798;28;19907;-43
2023/10/09 07:22:23;;;;;;;;;;;16.60;99.90;;;;;;5133826;28;19908;-46
2023/10/09 07:24:58;;;;;;;;;;;16.60;99.90;;;;;;5133822;28;20320;-47
2023/10/09 07:33:16;;;;;;;;;;;16.60;99.90;;;;;;5133987;28;19918;-43
2023/10/09 07:35:54;;;;;;;;;;;16.60;99.90;;;;;;5133309;28;19955;-44
2023/10/09 07:38:28;;;;;;;;;;;16.60;99.90;;;;;;5133594;27;19911;-46
2023/10/09 07:41:33;;;;;;;;;;;16.60;99.90;;;;;;5137340;27;19916;-45
2023/10/09 07:43:46;;;;;;;;;;;16.60;99.90;;;;;;5137462;27;19974;-43
2023/10/09 07:46:32;;;;;;;;;;;16.50;99.90;;;;;;5137660;27;20318;-44
2023/10/09 07:49:12;;;;;;;;;;;16.50;99.90;;;;;;5137669;27;19946;-45
2023/10/09 07:51:38;;;;;;;;;;;16.50;99.90;;;;;;5137543;27;19911;-46
2023/10/09 07:54:07;;;;;;;;;;;16.50;99.90;;;;;;5137438;27;19908;-43
2023/10/09 07:56:39;;;;;;;;;;;16.50;99.90;;;;;;5137418;27;19908;-43
2023/10/09 07:59:10;;;;;;;;;;;16.50;99.90;;;;;;5137267;27;19954;-42
2023/10/09 08:01:59;;;;;;;;;;;16.60;99.90;;;;;;5137337;27;19908;-42
2023/10/09 08:04:37;;;;;;;;;;;16.60;99.90;;;;;;5137395;27;19915;-45
2023/10/09 08:07:34;;;;;;;;;;;16.60;99.90;;;;;;5137304;27;19990;-46
2023/10/09 08:17:59;;;;;;;;;;;16.60;99.90;;;;;;5137003;27;19907;-45
2023/10/09 08:20:25;;;;;;;;;;;16.70;99.90;;;;;;5136927;27;19915;-45
2023/10/09 08:22:56;;;;;;;;;;;16.70;99.90;;;;;;5136807;27;19930;-43
2023/10/09 08:25:32;;;;;;;;;;;16.70;99.90;;;;;;5136838;27;19914;-44
2023/10/09 08:35:51;;;;;;;;;;;16.70;99.90;;;;;;5136411;27;20340;-44
2023/10/09 08:38:23;;;;;;;;;;;16.70;99.90;;;;;;5136527;27;20386;-44
2023/10/09 08:40:50;;;;;;;;;;;16.80;99.90;;;;;;5136447;27;19971;-46
2023/10/09 08:43:19;;;;;;;;;;;16.80;99.90;;;;;;5136590;27;19908;-43
2023/10/09 08:45:47;;;;;;;;;;;16.80;99.90;;;;;;5136424;27;19918;-48
2023/10/09 08:48:17;;;;;;;;;;;16.80;99.90;;;;;;5136522;27;20301;-43
2023/10/09 08:50:49;;;;;;;;;;;16.80;99.90;;;;;;5134864;27;19907;-46
2023/10/09 08:53:16;;;;;;;;;;;16.70;99.90;;;;;;5136300;27;19914;-44
2023/10/09 08:55:42;;;;;;;;;;;16.70;99.90;;;;;;5136196;27;19960;-42
2023/10/09 08:58:18;;;;;;;;;;;16.70;99.90;;;;;;5136308;27;19911;-43
2023/10/09 09:00:45;;;;;;;;;;;16.70;99.90;;;;;;5136116;27;19959;-45
2023/10/09 09:03:16;;;;;;;;;;;16.70;99.90;;;;;;5136351;27;19994;-46
2023/10/09 09:05:44;;;;;;;;;;;16.60;99.90;;;;;;5136037;27;19947;-43
2023/10/09 09:08:28;;;;;;;;;;;16.60;99.90;;;;;;5136145;27;20014;-44
2023/10/09 09:11:14;;;;;;;;;;;16.60;99.90;;;;;;5135927;27;19907;-44
2023/10/09 09:13:49;;;;;;;;;;;16.50;99.90;;;;;;5135919;27;20339;-45
2023/10/09 09:16:16;;;;;;;;;;;16.50;99.90;;;;;;5135854;27;20386;-44
2023/10/09 09:18:49;;;;;;;;;;;16.40;99.90;;;;;;5135667;27;19911;-43
2023/10/09 09:21:22;;;;;;;;;;;16.50;99.90;;;;;;5135845;27;19952;-45
2023/10/09 09:23:57;;;;;;;;;;;16.40;99.90;;;;;;5135675;27;19911;-48
2023/10/09 09:26:37;;;;;;;;;;;16.40;99.90;;;;;;5135683;27;20514;-43
2023/10/09 09:29:05;;;;;;;;;;;16.40;99.90;;;;;;5135641;27;19991;-46
2023/10/09 09:31:37;;;;;;;;;;;16.40;99.90;;;;;;5135520;27;20432;-48
2023/10/09 09:34:12;;;;;;;;;;;16.50;99.90;;;;;;5135698;27;19911;-44
2023/10/09 09:36:53;;;;;;;;;;;16.50;99.90;;;;;;5135212;27;19967;-45
2023/10/09 09:39:26;;;;;;;;;;;16.50;99.90;;;;;;5135367;27;19916;-45
2023/10/09 09:41:53;;;;;;;;;;;16.50;99.90;;;;;;5135398;27;20033;-45
2023/10/09 09:44:21;;;;;;;;;;;16.50;99.90;;;;;;5117037;27;20344;-45
2023/10/09 09:46:48;;;;;;;;;;;16.60;99.90;;;;;;5135163;27;19907;-46
2023/10/09 09:49:16;;;;;;;;;;;16.60;99.90;;;;;;5135187;27;19907;-45
2023/10/09 09:51:46;;;;;;;;;;;16.60;99.90;;;;;;5135030;27;20006;-45
2023/10/09 09:54:15;;;;;;;;;;;16.60;99.90;;;;;;5135260;27;19942;-45
2023/10/09 09:56:44;;;;;;;;;;;16.70;99.90;;;;;;5135059;27;19907;-44
2023/10/09 09:59:13;;;;;;;;;;;16.70;99.90;;;;;;5135042;27;19916;-44
2023/10/09 10:01:40;;;;;;;;;;;16.70;99.90;;;;;;5134538;27;19907;-45
2023/10/09 10:04:13;;;;;;;;;;;16.80;99.90;;;;;;5134866;27;19907;-45
2023/10/09 10:06:43;;;;;;;;;;;16.80;99.90;;;;;;5134849;27;20012;-47
2023/10/09 10:09:08;;;;;;;;;;;16.90;99.90;;;;;;5134908;27;19914;-45
2023/10/09 10:11:51;;;;;;;;;;;16.90;99.90;;;;;;5134823;27;19954;-45
2023/10/09 10:14:31;;;;;;;;;;;17.00;99.90;;;;;;5134850;27;19908;-44
2023/10/09 10:17:16;;;;;;;;;;;17.00;99.90;;;;;;5134629;27;19912;-45
2023/10/09 10:19:59;;;;;;;;;;;17.10;99.90;;;;;;5134688;27;19968;-45
2023/10/09 10:22:28;;;;;;;;;;;17.10;99.90;;;;;;5134625;27;20324;-46
2023/10/09 10:24:57;;;;;;;;;;;17.10;99.90;;;;;;5134486;27;19990;-44
2023/10/09 10:30:18;;;;;;;;;;;17.10;99.90;;;;;;5134492;27;19960;-45
2023/10/09 10:32:53;;;;;;;;;;;17.10;99.90;;;;;;5134440;27;19915;-45
2023/10/09 10:35:20;;;;;;;;;;;17.10;99.90;;;;;;5134141;27;19918;-44
2023/10/09 10:38:32;;;;;;;;;;;17.10;99.90;;;;;;5134328;27;20335;-45
2023/10/09 10:40:38;;;;;;;;;;;17.10;99.90;;;;;;5119488;27;20001;-45
2023/10/09 10:43:31;;;;;;;;;;;17.10;99.90;;;;;;5133582;27;21598;-43
2023/10/09 10:46:32;;;;;;;;;;;17.10;99.90;;;;;;5134182;27;20365;-44
2023/10/09 10:49:14;;;;;;;;;;;17.10;99.90;;;;;;5134144;27;19908;-43
2023/10/09 10:51:39;;;;;;;;;;;17.10;99.90;;;;;;5134086;27;19911;-44
2023/10/09 10:56:51;;;;;;;;;;;17.10;99.90;;;;;;5134391;27;19919;-46
2023/10/09 10:59:22;;;;;;;;;;;17.10;99.90;;;;;;5134021;27;19963;-46
2023/10/09 11:04:38;;;;;;;;;;;17.10;99.90;;;;;;5134056;27;19908;-46
2023/10/09 11:07:12;;;;;;;;;;;17.10;99.90;;;;;;5133933;27;19914;-45
2023/10/09 11:12:39;;;;;;;;;;;17.10;99.90;;;;;;5133988;27;20413;-46
2023/10/09 11:15:29;;;;;;;;;;;17.00;99.90;;;;;;5132941;27;19908;-46
2023/10/09 11:20:56;;;;;;;;;;;17.10;99.90;;;;;;5133678;28;19972;-44
2023/10/09 11:23:36;;;;;;;;;;;17.10;99.90;;;;;;5133717;28;19908;-45
2023/10/09 11:28:56;;;;;;;;;;;17.10;99.90;;;;;;5133744;28;19953;-43
2023/10/09 11:31:22;;;;;;;;;;;17.10;99.90;;;;;;5133711;28;19914;-45
2023/10/09 11:33:51;;;;;;;;;;;17.10;99.90;;;;;;5133555;28;20357;-44
2023/10/09 11:36:34;;;;;;;;;;;17.10;99.90;;;;;;5133409;28;20018;-45
2023/10/09 11:39:14;;;;;;;;;;;17.10;99.90;;;;;;5133585;28;19919;-45
2023/10/09 11:41:41;;;;;;;;;;;17.10;99.90;;;;;;5133449;28;20365;-45
2023/10/09 11:44:06;;;;;;;;;;;17.10;99.90;;;;;;5133498;28;19994;-45
2023/10/09 11:46:48;;;;;;;;;;;17.10;99.90;;;;;;5133538;28;20353;-45
2023/10/09 11:49:40;;;;;;;;;;;17.10;99.90;;;;;;5133618;28;19907;-45
2023/10/09 11:54:38;;;;;;;;;;;17.10;99.90;;;;;;5133424;28;20347;-44
2023/10/09 11:57:03;;;;;;;;;;;17.20;99.90;;;;;;5133408;28;19908;-45
2023/10/09 11:59:38;;;;;;;;;;;17.30;99.90;;;;;;5133352;28;19916;-45
2023/10/09 12:02:04;;;;;;;;;;;17.30;99.90;;;;;;5133385;28;19911;-47
2023/10/09 12:04:30;;;;;;;;;;;17.40;99.90;;;;;;5133441;28;19957;-45
2023/10/09 12:07:06;;;;;;;;;;;17.40;99.90;;;;;;5133154;28;20287;-46
2023/10/09 12:09:34;;;;;;;;;;;17.60;99.90;;;;;;5133337;28;19908;-44
2023/10/09 12:12:02;;;;;;;;;;;17.60;99.90;;;;;;5133205;28;20354;-45
2023/10/09 12:14:33;;;;;;;;;;;17.60;99.90;;;;;;5133322;28;19960;-45
2023/10/09 12:17:05;;;;;;;;;;;17.60;99.90;;;;;;5133318;28;19919;-44
2023/10/09 12:19:34;;;;;;;;;;;17.60;99.90;;;;;;5133112;28;19998;-44
2023/10/09 12:22:00;;;;;;;;;;;17.60;99.90;;;;;;5133327;28;19957;-44
2023/10/09 12:24:26;;;;;;;;;;;17.50;99.90;;;;;;5133295;28;19913;-45
2023/10/09 12:26:53;;;;;;;;;;;17.60;99.90;;;;;;5136369;27;20357;-45
2023/10/09 12:29:19;;;;;;;;;;;17.60;99.90;;;;;;5136902;27;19908;-44
2023/10/09 12:31:45;;;;;;;;;;;17.60;99.90;;;;;;5136737;27;19960;-44
2023/10/09 12:34:15;;;;;;;;;;;17.70;99.90;;;;;;5136664;27;19908;-46
2023/10/09 12:36:43;;;;;;;;;;;17.70;99.90;;;;;;5136345;27;20408;-44
2023/10/09 12:39:17;;;;;;;;;;;17.80;99.90;;;;;;5136643;27;19964;-44
2023/10/09 12:41:43;;;;;;;;;;;18.00;99.90;;;;;;5136532;27;20360;-44
2023/10/09 12:44:14;;;;;;;;;;;18.30;99.90;;;;;;5136570;27;19908;-45
2023/10/09 12:46:51;;;;;;;;;;;18.40;99.90;;;;;;5136384;27;19917;-44
2023/10/09 12:49:24;;;;;;;;;;;18.50;99.90;;;;;;5136505;27;20278;-43
2023/10/09 12:51:53;;;;;;;;;;;18.50;99.90;;;;;;5136336;27;19923;-45
2023/10/09 12:54:20;;;;;;;;;;;18.50;99.90;;;;;;5136422;27;19907;-44
2023/10/09 12:56:48;;;;;;;;;;;18.40;99.90;;;;;;5136251;27;19911;-45
2023/10/09 12:59:14;;;;;;;;;;;18.40;99.90;;;;;;5136244;27;20285;-45
2023/10/09 13:01:43;;;;;;;;;;;18.40;99.90;;;;;;5136164;27;19918;-45
2023/10/09 13:04:11;;;;;;;;;;;18.50;99.90;;;;;;5136297;27;19914;-46
2023/10/09 13:06:46;;;;;;;;;;;18.60;99.90;;;;;;5136023;27;20486;-47
2023/10/09 13:09:15;;;;;;;;;;;18.60;99.90;;;;;;5136162;27;20001;-46
2023/10/09 13:11:42;;;;;;;;;;;18.70;99.90;;;;;;5135866;27;19908;-44
2023/10/09 13:14:17;;;;;;;;;;;18.70;99.90;;;;;;5136112;27;19960;-46
2023/10/09 13:16:43;;;;;;;;;;;18.80;99.90;;;;;;5135960;27;19969;-46
2023/10/09 13:19:11;;;;;;;;;;;18.90;99.90;;;;;;5135778;27;19915;-45
2023/10/09 13:21:39;;;;;;;;;;;19.00;99.90;;;;;;5135762;27;19964;-44
2023/10/09 13:24:08;;;;;;;;;;;19.10;99.90;;;;;;5135675;27;20378;-45
2023/10/09 13:26:34;;;;;;;;;;;19.00;99.90;;;;;;5135725;27;19914;-45
2023/10/09 13:29:01;;;;;;;;;;;19.00;99.90;;;;;;5135808;27;19991;-44
2023/10/09 13:31:27;;;;;;;;;;;19.00;99.90;;;;;;5135597;27;19908;-45
2023/10/09 13:33:56;;;;;;;;;;;19.00;99.90;;;;;;5135521;27;19957;-45
2023/10/09 13:36:31;;;;;;;;;;;18.90;99.90;;;;;;5134904;27;20011;-46
2023/10/09 13:39:25;;;;;;;;;;;18.90;99.90;;;;;;5135168;27;19958;-45
2023/10/09 13:41:57;;;;;;;;;;;18.80;99.90;;;;;;5135340;27;19922;-46
2023/10/09 13:44:26;;;;;;;;;;;18.80;99.90;;;;;;5135449;27;19911;-48
2023/10/09 13:46:53;;;;;;;;;;;18.80;99.90;;;;;;5135194;27;19947;-45
2023/10/09 13:49:22;;;;;;;;;;;18.80;99.90;;;;;;5135192;27;19911;-46
2023/10/09 13:51:49;;;;;;;;;;;18.80;99.90;;;;;;5135117;27;20392;-46
2023/10/09 13:54:22;;;;;;;;;;;18.70;99.90;;;;;;5135076;27;19908;-47
2023/10/09 13:56:52;;;;;;;;;;;18.60;99.90;;;;;;5135155;27;19943;-45
2023/10/09 13:59:22;;;;;;;;;;;18.60;99.90;;;;;;5134938;27;19964;-45
2023/10/09 14:01:48;;;;;;;;;;;18.70;99.90;;;;;;5134878;27;19922;-46
2023/10/09 14:04:18;;;;;;;;;;;18.70;99.90;;;;;;5134938;27;20417;-46
2023/10/09 14:06:44;;;;;;;;;;;18.70;99.90;;;;;;5134843;27;19953;-45
2023/10/09 14:09:11;;;;;;;;;;;18.70;99.90;;;;;;5134817;27;20273;-45
2023/10/09 14:11:44;;;;;;;;;;;18.60;99.90;;;;;;5134801;27;19929;-45
2023/10/09 14:14:09;;;;;;;;;;;18.50;99.90;;;;;;5134714;27;19911;-47
2023/10/09 14:16:42;;;;;;;;;;;18.50;99.90;;;;;;5134656;27;20433;-45
2023/10/09 14:19:13;;;;;;;;;;;18.40;99.90;;;;;;5134555;27;19919;-46
2023/10/09 14:21:40;;;;;;;;;;;18.30;99.90;;;;;;5134608;27;19961;-45
2023/10/09 14:24:15;;;;;;;;;;;18.30;99.90;;;;;;5134584;27;19998;-45
2023/10/09 14:26:46;;;;;;;;;;;18.20;99.90;;;;;;5134395;27;19911;-46
2023/10/09 14:29:16;;;;;;;;;;;18.10;99.90;;;;;;5134609;27;19915;-46
2023/10/09 14:31:42;;;;;;;;;;;18.00;99.90;;;;;;5134337;27;19951;-45
2023/10/09 14:34:09;;;;;;;;;;;18.00;99.90;;;;;;5134480;27;20002;-44
2023/10/09 14:36:35;;;;;;;;;;;18.00;99.90;;;;;;5134060;27;19954;-46
2023/10/09 14:39:00;;;;;;;;;;;17.90;99.90;;;;;;5134148;27;19955;-46
2023/10/09 14:41:27;;;;;;;;;;;17.90;99.90;;;;;;5134433;27;19907;-45
2023/10/09 14:43:52;;;;;;;;;;;17.90;99.90;;;;;;5134145;27;19911;-45
2023/10/09 14:46:26;;;;;;;;;;;17.80;99.90;;;;;;5134285;27;19930;-45
2023/10/09 14:48:53;;;;;;;;;;;17.80;99.90;;;;;;5134042;27;20366;-44
2023/10/09 14:51:27;;;;;;;;;;;17.80;99.90;;;;;;5134191;27;19919;-45
2023/10/09 14:54:01;;;;;;;;;;;17.80;99.90;;;;;;5134058;27;19911;-45
2023/10/09 14:56:30;;;;;;;;;;;17.80;99.90;;;;;;5134004;27;19947;-47
2023/10/09 14:58:58;;;;;;;;;;;17.80;99.90;;;;;;5133876;27;19914;-47
2023/10/09 15:01:25;;;;;;;;;;;17.70;99.90;;;;;;5134005;27;19912;-46
2023/10/09 15:03:54;;;;;;;;;;;17.70;99.90;;;;;;5133831;27;19912;-45
2023/10/09 15:06:20;;;;;;;;;;;17.70;99.90;;;;;;5133852;27;19912;-45
2023/10/09 15:08:46;;;;;;;;;;;17.70;99.90;;;;;;5133931;27;19914;-46
2023/10/09 15:11:12;;;;;;;;;;;17.70;99.90;;;;;;5133887;27;19907;-45
2023/10/09 15:13:39;;;;;;;;;;;17.70;99.90;;;;;;5133710;27;19952;-46
2023/10/09 15:16:04;;;;;;;;;;;17.70;99.90;;;;;;5133901;27;19951;-46
2023/10/09 15:18:33;;;;;;;;;;;17.70;99.90;;;;;;5133805;28;19969;-45
2023/10/09 15:20:59;;;;;;;;;;;17.60;99.90;;;;;;5133662;28;19919;-45
2023/10/09 15:23:25;;;;;;;;;;;17.60;99.90;;;;;;5133676;28;20381;-45
2023/10/09 15:25:51;;;;;;;;;;;17.60;99.90;;;;;;5133633;28;19912;-45
2023/10/09 15:28:19;;;;;;;;;;;17.60;99.90;;;;;;5133713;28;19907;-45
2023/10/09 15:30:47;;;;;;;;;;;17.60;99.90;;;;;;5133581;28;19907;-45
2023/10/09 15:33:19;;;;;;;;;;;17.60;99.90;;;;;;5133544;28;19908;-45
2023/10/09 15:35:46;;;;;;;;;;;17.60;99.90;;;;;;5133333;28;19934;-45
2023/10/09 15:38:13;;;;;;;;;;;17.60;99.90;;;;;;5133496;28;20282;-44
2023/10/09 15:40:41;;;;;;;;;;;17.60;99.90;;;;;;5133428;28;20057;-45
2023/10/09 15:43:06;;;;;;;;;;;17.60;99.90;;;;;;5133619;28;20039;-45
2023/10/09 15:45:39;;;;;;;;;;;17.60;99.90;;;;;;5133581;28;19960;-45
2023/10/09 15:48:06;;;;;;;;;;;17.60;99.90;;;;;;5133602;28;19915;-47
2023/10/09 15:50:34;;;;;;;;;;;17.60;99.90;;;;;;5133492;28;19966;-45
2023/10/09 15:53:02;;;;;;;;;;;17.60;99.90;;;;;;5133360;28;20004;-45
2023/10/09 15:55:27;;;;;;;;;;;17.60;99.90;;;;;;5133415;28;20006;-45
2023/10/09 15:57:57;;;;;;;;;;;17.60;99.90;;;;;;5133429;28;20002;-47
2023/10/09 16:00:28;;;;;;;;;;;17.50;99.90;;;;;;5134449;27;19915;-46
2023/10/09 16:02:53;;;;;;;;;;;17.50;99.90;;;;;;5137346;27;19927;-44
2023/10/09 16:05:20;;;;;;;;;;;17.50;99.90;;;;;;5137417;27;19952;-46
2023/10/09 16:07:45;;;;;;;;;;;17.50;99.90;;;;;;5137187;27;19907;-47
2023/10/09 16:10:11;;;;;;;;;;;17.50;99.90;;;;;;5137325;27;20002;-45
2023/10/09 16:12:37;;;;;;;;;;;17.50;99.90;;;;;;5137205;27;19908;-46
2023/10/09 16:15:06;;;;;;;;;;;17.40;99.90;;;;;;5137116;27;19927;-45
2023/10/09 16:17:32;;;;;;;;;;;17.40;99.90;;;;;;5137045;27;20365;-46
2023/10/09 16:19:59;;;;;;;;;;;17.40;99.90;;;;;;5136922;27;19915;-45
2023/10/09 16:22:25;;;;;;;;;;;17.40;99.90;;;;;;5137058;27;19931;-45
2023/10/09 16:24:52;;;;;;;;;;;17.30;99.90;;;;;;5136891;27;20369;-45
2023/10/09 16:27:23;;;;;;;;;;;17.30;99.90;;;;;;5136901;27;19907;-46
2023/10/09 16:29:50;;;;;;;;;;;17.30;99.90;;;;;;5136814;27;19908;-45
2023/10/09 16:32:16;;;;;;;;;;;17.30;99.90;;;;;;5136907;27;19914;-44
2023/10/09 16:34:44;;;;;;;;;;;17.30;99.90;;;;;;5136773;27;19907;-46
2023/10/09 16:37:11;;;;;;;;;;;17.20;99.90;;;;;;5136654;27;19924;-46
2023/10/09 16:39:38;;;;;;;;;;;17.20;99.90;;;;;;5136831;27;19954;-46
2023/10/09 16:42:04;;;;;;;;;;;17.20;99.90;;;;;;5136551;27;19908;-45
2023/10/09 16:44:31;;;;;;;;;;;17.20;99.90;;;;;;5136536;27;20405;-44
2023/10/09 16:46:58;;;;;;;;;;;17.20;99.90;;;;;;5136470;27;19930;-46
2023/10/09 16:49:25;;;;;;;;;;;17.10;99.90;;;;;;5136539;27;19907;-44
2023/10/09 16:51:55;;;;;;;;;;;17.10;99.90;;;;;;5136355;27;19939;-45
2023/10/09 16:54:20;;;;;;;;;;;17.10;99.90;;;;;;5136384;27;20410;-45
2023/10/09 16:56:47;;;;;;;;;;;17.00;99.90;;;;;;5136427;27;19907;-44
2023/10/09 16:59:15;;;;;;;;;;;17.00;99.90;;;;;;5136298;27;19919;-46
2023/10/09 17:01:41;;;;;;;;;;;17.00;99.90;;;;;;5136231;27;20412;-45
2023/10/09 17:04:11;;;;;;;;;;;16.90;99.90;;;;;;5136237;27;19968;-45